createdAt,value
2018-07-03T00:02:04.457Z,21.20
2018-07-03T00:04:33.553Z,21.20
2018-07-03T00:07:02.684Z,21.20
2018-07-03T00:09:31.773Z,21.20
2018-07-03T00:12:00.842Z,21.20
2018-07-03T00:14:29.950Z,21.20
2018-07-03T00:17:04.860Z,21.10
2018-07-03T00:19:33.963Z,21.00
2018-07-03T00:22:03.044Z,21.00
2018-07-03T00:24:32.090Z,20.90
2018-07-03T00:27:01.162Z,20.80
2018-07-03T00:29:30.336Z,20.80
2018-07-03T00:31:59.388Z,20.80
2018-07-03T00:34:28.975Z,20.80
2018-07-03T00:36:58.077Z,20.80
2018-07-03T00:39:27.398Z,20.70
2018-07-03T00:41:56.541Z,20.60
2018-07-03T00:44:25.629Z,20.50
2018-07-03T00:46:55.356Z,20.30
2018-07-03T00:49:24.748Z,20.30
2018-07-03T00:51:53.879Z,20.20
2018-07-03T00:54:22.950Z,20.30
2018-07-03T00:56:52.048Z,20.30
2018-07-03T00:59:21.430Z,20.30
2018-07-03T01:01:50.495Z,20.30
2018-07-03T01:04:19.820Z,20.40
2018-07-03T01:06:49.247Z,20.30
2018-07-03T01:09:18.311Z,20.40
2018-07-03T01:11:47.570Z,20.40
2018-07-03T01:14:16.641Z,20.30
2018-07-03T01:16:45.948Z,20.30
2018-07-03T01:19:15.354Z,20.30
2018-07-03T01:21:44.957Z,20.30
2018-07-03T01:24:13.997Z,20.30
2018-07-03T01:26:46.472Z,20.30
2018-07-03T01:29:15.773Z,20.30
2018-07-03T01:31:45.187Z,20.20
2018-07-03T01:34:14.293Z,20.20
2018-07-03T01:36:43.688Z,20.10
2018-07-03T01:39:12.746Z,20.10
2018-07-03T01:41:41.859Z,20.00
2018-07-03T01:44:10.910Z,20.00
2018-07-03T01:46:40.531Z,19.90
2018-07-03T01:49:09.618Z,19.60
2018-07-03T01:51:38.795Z,19.40
2018-07-03T01:54:08.169Z,19.30
2018-07-03T01:56:37.513Z,19.40
2018-07-03T01:59:06.910Z,19.40
2018-07-03T02:01:35.966Z,19.50
2018-07-03T02:04:05.094Z,19.60
2018-07-03T02:06:34.818Z,19.60
2018-07-03T02:09:06.223Z,19.70
2018-07-03T02:11:35.290Z,19.70
2018-07-03T02:14:04.668Z,19.70
2018-07-03T02:16:34.372Z,19.80
2018-07-03T02:19:03.755Z,19.80
2018-07-03T02:21:33.222Z,19.80
2018-07-03T02:26:31.157Z,19.60
2018-07-03T02:29:00.238Z,19.60
2018-07-03T02:31:29.757Z,19.70
2018-07-03T02:33:58.853Z,19.80
2018-07-03T02:36:27.928Z,19.80
2018-07-03T02:38:57.326Z,19.80
2018-07-03T02:41:26.430Z,19.70
2018-07-03T02:43:55.800Z,19.70
2018-07-03T02:46:24.863Z,19.60
2018-07-03T02:48:53.943Z,19.50
2018-07-03T02:51:23.008Z,19.40
2018-07-03T02:53:52.061Z,19.30
2018-07-03T02:56:21.141Z,19.30
2018-07-03T02:58:50.236Z,19.20
2018-07-03T03:01:19.299Z,19.10
2018-07-03T03:03:48.370Z,19.10
2018-07-03T03:06:17.522Z,19.20
2018-07-03T03:08:46.586Z,19.10
2018-07-03T03:11:15.688Z,19.30
2018-07-03T03:13:44.881Z,19.30
2018-07-03T03:16:15.397Z,19.40
2018-07-03T03:18:44.770Z,19.50
2018-07-03T03:21:14.126Z,19.50
2018-07-03T03:23:44.868Z,19.60
2018-07-03T03:26:14.218Z,19.60
2018-07-03T03:28:43.985Z,19.60
2018-07-03T03:31:13.230Z,19.60
2018-07-03T03:33:42.281Z,19.60
2018-07-03T03:36:11.342Z,19.70
2018-07-03T03:38:40.764Z,19.60
2018-07-03T03:41:09.846Z,19.60
2018-07-03T03:43:38.957Z,19.50
2018-07-03T03:46:08.445Z,19.40
2018-07-03T03:48:37.526Z,19.40
2018-07-03T03:51:06.925Z,19.40
2018-07-03T03:53:36.045Z,19.40
2018-07-03T03:56:05.165Z,19.40
2018-07-03T03:58:34.226Z,19.50
2018-07-03T04:01:03.678Z,19.50
2018-07-03T04:03:32.810Z,19.60
2018-07-03T04:06:01.974Z,19.50
2018-07-03T04:08:31.078Z,19.50
2018-07-03T04:11:00.198Z,19.50
2018-07-03T04:13:29.326Z,19.50
2018-07-03T04:15:58.480Z,19.30
2018-07-03T04:18:37.614Z,19.40
2018-07-03T04:21:07.938Z,19.00
2018-07-03T04:23:38.146Z,18.90
2018-07-03T04:26:07.286Z,18.90
2018-07-03T04:28:36.673Z,18.90
2018-07-03T04:31:05.756Z,18.70
2018-07-03T04:33:34.883Z,18.70
2018-07-03T04:36:04.136Z,18.90
2018-07-03T04:38:33.479Z,19.00
2018-07-03T04:41:02.547Z,19.10
2018-07-03T04:43:31.942Z,19.20
2018-07-03T04:46:01.033Z,19.40
2018-07-03T04:48:30.589Z,19.60
2018-07-03T04:50:59.794Z,19.80
2018-07-03T04:53:28.888Z,20.00
2018-07-03T04:55:57.988Z,20.10
2018-07-03T04:58:27.363Z,20.10
2018-07-03T05:00:56.472Z,20.20
2018-07-03T05:03:25.542Z,20.40
2018-07-03T05:05:54.970Z,20.60
2018-07-03T05:08:24.355Z,20.70
2018-07-03T05:10:53.427Z,20.80
2018-07-03T05:13:22.559Z,20.90
2018-07-03T05:15:51.708Z,20.90
2018-07-03T05:18:20.789Z,20.60
2018-07-03T05:20:49.915Z,20.70
2018-07-03T05:23:19.009Z,20.60
2018-07-03T05:25:48.081Z,20.40
2018-07-03T05:28:17.506Z,20.20
2018-07-03T05:30:46.954Z,20.10
2018-07-03T05:33:22.731Z,20.20
2018-07-03T05:35:51.860Z,20.40
2018-07-03T05:38:21.255Z,20.60
2018-07-03T05:40:50.387Z,20.70
2018-07-03T05:43:19.537Z,20.70
2018-07-03T05:45:48.613Z,20.90
2018-07-03T05:48:17.709Z,21.00
2018-07-03T05:50:47.046Z,21.10
2018-07-03T05:53:16.384Z,21.00
2018-07-03T05:55:45.511Z,20.90
2018-07-03T05:58:14.839Z,20.90
2018-07-03T06:00:43.954Z,20.90
2018-07-03T06:03:13.061Z,20.90
2018-07-03T06:05:42.166Z,20.90
2018-07-03T06:08:11.522Z,21.00
2018-07-03T06:10:40.629Z,21.20
2018-07-03T06:13:10.041Z,21.20
2018-07-03T06:15:39.402Z,21.30
2018-07-03T06:18:08.629Z,21.50
2018-07-03T06:20:38.260Z,21.70
2018-07-03T06:23:07.326Z,21.90
2018-07-03T06:25:36.769Z,22.00
2018-07-03T06:28:05.955Z,22.20
2018-07-03T06:30:35.830Z,22.30
2018-07-03T06:33:04.920Z,22.50
2018-07-03T06:35:34.034Z,22.80
2018-07-03T06:38:03.210Z,23.00
2018-07-03T06:40:32.350Z,23.10
2018-07-03T06:43:01.443Z,23.40
2018-07-03T06:45:30.590Z,23.70
2018-07-03T06:48:00.027Z,23.90
2018-07-03T06:50:29.148Z,24.10
2018-07-03T06:52:58.246Z,24.30
2018-07-03T06:55:28.253Z,24.60
2018-07-03T06:57:57.449Z,24.80
2018-07-03T07:00:26.752Z,25.00
2018-07-03T07:02:56.302Z,25.30
2018-07-03T07:05:25.878Z,25.50
2018-07-03T07:07:54.978Z,25.80
2018-07-03T07:10:24.073Z,26.20
2018-07-03T07:12:53.178Z,26.40
2018-07-03T07:15:22.323Z,26.40
2018-07-03T07:17:51.423Z,26.50
2018-07-03T07:20:21.169Z,26.60
2018-07-03T07:22:50.267Z,26.90
2018-07-03T07:25:19.630Z,27.20
2018-07-03T07:27:48.972Z,27.30
2018-07-03T07:30:18.669Z,27.50
2018-07-03T07:32:47.857Z,27.60
2018-07-03T07:35:17.390Z,27.70
2018-07-03T07:37:49.427Z,28.00
2018-07-03T07:40:19.465Z,28.20
2018-07-03T07:42:49.590Z,28.50
2018-07-03T07:47:48.820Z,28.70
2018-07-03T07:50:17.979Z,28.80
2018-07-03T07:52:47.180Z,29.10
2018-07-03T07:55:16.565Z,29.20
2018-07-03T07:57:45.698Z,29.40
2018-07-03T08:00:15.080Z,29.50
2018-07-03T08:02:44.239Z,29.80
2018-07-03T08:05:13.353Z,29.80
2018-07-03T08:07:42.597Z,29.90
2018-07-03T08:10:11.846Z,30.00
2018-07-03T08:12:40.951Z,30.20
2018-07-03T08:15:10.104Z,30.50
2018-07-03T08:17:39.358Z,30.50
2018-07-03T08:20:08.464Z,30.80
2018-07-03T08:22:37.774Z,30.80
2018-07-03T08:25:06.951Z,30.80
2018-07-03T08:27:36.299Z,31.20
2018-07-03T08:30:06.481Z,31.30
2018-07-03T08:32:35.705Z,31.10
2018-07-03T08:35:07.245Z,31.40
2018-07-03T08:37:36.607Z,31.50
2018-07-03T08:40:06.949Z,31.60
2018-07-03T08:42:36.453Z,31.80
2018-07-03T08:45:06.325Z,32.10
2018-07-03T08:47:35.481Z,32.30
2018-07-03T08:50:05.318Z,32.30
2018-07-03T08:52:34.433Z,32.10
2018-07-03T08:55:04.038Z,32.20
2018-07-03T08:57:33.189Z,32.20
2018-07-03T09:00:02.330Z,32.30
2018-07-03T09:02:31.456Z,32.70
2018-07-03T09:05:00.991Z,32.80
2018-07-03T09:07:30.068Z,33.00
2018-07-03T09:09:59.858Z,33.30
2018-07-03T09:12:29.045Z,33.50
2018-07-03T09:14:58.121Z,33.70
2018-07-03T09:17:29.177Z,33.90
2018-07-03T09:19:59.450Z,33.80
2018-07-03T09:22:28.891Z,34.10
2018-07-03T09:24:58.161Z,33.70
2018-07-03T09:27:27.305Z,33.10
2018-07-03T09:29:56.554Z,33.40
2018-07-03T09:32:25.755Z,33.50
2018-07-03T09:34:55.370Z,33.70
2018-07-03T09:37:24.759Z,33.90
2018-07-03T09:39:54.070Z,34.10
2018-07-03T09:42:23.213Z,34.20
2018-07-03T09:44:52.305Z,34.10
2018-07-03T09:47:21.683Z,33.90
2018-07-03T09:49:50.762Z,34.20
2018-07-03T09:52:20.358Z,34.40
2018-07-03T09:54:49.562Z,34.50
2018-07-03T09:57:18.646Z,34.50
2018-07-03T09:59:47.927Z,34.50
2018-07-03T10:02:17.022Z,34.70
2018-07-03T10:04:46.109Z,34.90
2018-07-03T10:07:15.181Z,35.20
2018-07-03T10:09:45.332Z,35.30
2018-07-03T10:12:14.445Z,35.40
2018-07-03T10:14:43.530Z,35.50
2018-07-03T10:17:13.223Z,35.70
2018-07-03T10:19:43.930Z,35.80
2018-07-03T10:22:13.701Z,35.70
2018-07-03T10:24:42.838Z,35.80
2018-07-03T10:27:11.945Z,35.90
2018-07-03T10:29:41.024Z,35.90
2018-07-03T10:32:10.162Z,36.00
2018-07-03T10:34:39.267Z,35.80
2018-07-03T10:37:08.555Z,35.80
2018-07-03T10:39:37.808Z,35.30
2018-07-03T10:42:06.915Z,35.00
2018-07-03T10:44:35.987Z,35.20
2018-07-03T10:47:05.568Z,35.50
2018-07-03T10:49:35.506Z,35.70
2018-07-03T10:52:04.817Z,35.80
2018-07-03T10:57:02.858Z,35.90
2018-07-03T10:59:31.936Z,35.80
2018-07-03T11:02:01.146Z,35.80
2018-07-03T11:04:31.221Z,35.90
2018-07-03T11:07:00.559Z,36.00
2018-07-03T11:09:29.931Z,36.10
2018-07-03T11:11:59.064Z,36.30
2018-07-03T11:14:29.263Z,36.30
2018-07-03T11:16:58.382Z,36.40
2018-07-03T11:19:27.680Z,36.30
2018-07-03T11:21:57.058Z,36.20
2018-07-03T11:24:26.220Z,36.30
2018-07-03T11:26:55.330Z,36.30
2018-07-03T11:29:24.443Z,36.40
2018-07-03T11:31:53.957Z,36.50
2018-07-03T11:34:23.311Z,36.50
2018-07-03T11:36:52.405Z,36.60
2018-07-03T11:39:21.587Z,36.30
2018-07-03T11:41:50.769Z,36.20
2018-07-03T11:44:19.832Z,36.10
2018-07-03T11:46:49.059Z,36.20
2018-07-03T11:49:18.360Z,35.90
2018-07-03T11:51:47.763Z,35.90
2018-07-03T11:54:16.995Z,36.00
2018-07-03T11:56:46.134Z,35.80
2018-07-03T11:59:15.252Z,35.70
2018-07-03T12:01:44.540Z,35.80
2018-07-03T12:04:13.751Z,36.00
2018-07-03T12:06:42.839Z,36.00
2018-07-03T12:09:12.395Z,36.10
2018-07-03T12:11:41.551Z,35.70
2018-07-03T12:14:11.145Z,35.60
2018-07-03T12:16:40.246Z,35.60
2018-07-03T12:19:09.449Z,35.60
2018-07-03T12:21:38.586Z,35.70
2018-07-03T12:24:07.833Z,35.90
2018-07-03T12:26:37.005Z,36.00
2018-07-03T12:29:06.555Z,35.80
2018-07-03T12:31:35.735Z,35.90
2018-07-03T12:34:04.845Z,35.90
2018-07-03T12:36:34.344Z,35.90
2018-07-03T12:39:05.278Z,36.00
2018-07-03T12:41:34.376Z,36.20
2018-07-03T12:44:04.123Z,36.20
2018-07-03T12:46:33.289Z,36.10
2018-07-03T12:49:02.411Z,36.10
2018-07-03T12:51:31.970Z,36.20
2018-07-03T12:54:01.148Z,36.10
2018-07-03T12:56:30.318Z,36.00
2018-07-03T12:58:59.969Z,35.90
2018-07-03T13:01:29.434Z,35.70
2018-07-03T13:06:28.272Z,35.70
2018-07-03T13:08:57.700Z,35.60
2018-07-03T13:11:27.104Z,35.50
2018-07-03T13:13:56.226Z,35.30
2018-07-03T13:16:25.625Z,35.30
2018-07-03T13:18:54.995Z,35.20
2018-07-03T13:21:24.255Z,35.30
2018-07-03T13:23:53.403Z,35.40
2018-07-03T13:26:22.537Z,35.40
2018-07-03T13:28:51.919Z,35.20
2018-07-03T13:31:21.313Z,35.00
2018-07-03T13:33:50.777Z,35.10
2018-07-03T13:36:19.918Z,35.20
2018-07-03T13:38:49.524Z,35.00
2018-07-03T13:41:18.884Z,35.00
2018-07-03T13:43:48.537Z,34.90
2018-07-03T13:46:17.628Z,34.80
2018-07-03T13:48:46.999Z,34.70
2018-07-03T13:51:16.475Z,34.60
2018-07-03T13:56:14.670Z,34.30
2018-07-03T13:58:44.125Z,34.20
2018-07-03T14:01:13.262Z,34.20
2018-07-03T14:03:43.143Z,34.10
2018-07-03T14:06:12.282Z,34.00
2018-07-03T14:08:41.397Z,33.90
2018-07-03T14:11:10.781Z,33.70
2018-07-03T14:13:39.942Z,33.80
2018-07-03T14:16:11.277Z,33.40
2018-07-03T14:18:40.369Z,33.30
2018-07-03T14:21:09.461Z,33.30
2018-07-03T14:23:38.574Z,33.20
2018-07-03T14:26:08.006Z,33.10
2018-07-03T14:28:37.040Z,33.30
2018-07-03T14:31:06.420Z,33.40
2018-07-03T14:33:35.702Z,33.30
2018-07-03T14:36:05.392Z,33.30
2018-07-03T14:38:35.610Z,33.30
2018-07-03T14:41:05.011Z,33.20
2018-07-03T14:43:34.829Z,33.00
2018-07-03T14:46:04.626Z,33.10
2018-07-03T14:48:33.738Z,33.10
2018-07-03T14:51:02.829Z,33.10
2018-07-03T14:53:34.917Z,32.90
2018-07-03T14:56:05.038Z,32.50
2018-07-03T14:58:34.570Z,32.10
2018-07-03T15:01:03.884Z,32.10
2018-07-03T15:03:33.185Z,32.00
2018-07-03T15:06:02.302Z,31.90
2018-07-03T15:08:32.134Z,31.90
2018-07-03T15:11:03.948Z,31.80
2018-07-03T15:13:33.941Z,31.70
2018-07-03T15:16:03.591Z,31.60
2018-07-03T15:18:38.178Z,31.60
2018-07-03T15:21:07.281Z,31.50
2018-07-03T15:23:36.657Z,31.30
2018-07-03T15:26:06.063Z,31.30
2018-07-03T15:28:36.239Z,31.40
2018-07-03T15:31:05.419Z,31.50
2018-07-03T15:33:34.655Z,31.50
2018-07-03T15:36:03.782Z,31.40
2018-07-03T15:38:33.686Z,31.40
2018-07-03T15:41:02.907Z,31.30
2018-07-03T15:43:32.020Z,31.30
2018-07-03T15:46:01.630Z,31.20
2018-07-03T15:48:30.719Z,31.10
2018-07-03T15:51:01.253Z,31.00
2018-07-03T15:53:30.358Z,31.10
2018-07-03T15:55:59.533Z,31.00
2018-07-03T15:58:29.121Z,31.20
2018-07-03T16:00:58.426Z,31.30
2018-07-03T16:05:41.796Z,31.20
2018-07-03T16:09:20.904Z,31.00
2018-07-03T16:11:50.126Z,30.80
2018-07-03T16:14:19.332Z,30.90
2018-07-03T16:16:48.452Z,30.90
2018-07-03T16:19:22.875Z,30.90
2018-07-03T16:21:52.332Z,30.80
2018-07-03T16:24:21.527Z,30.80
2018-07-03T16:26:50.759Z,30.80
2018-07-03T16:29:19.943Z,30.80
2018-07-03T16:31:49.035Z,30.70
2018-07-03T16:34:18.721Z,30.60
2018-07-03T16:36:47.883Z,30.50
2018-07-03T16:39:17.048Z,30.30
2018-07-03T16:41:47.041Z,30.30
2018-07-03T16:44:16.298Z,30.40
2018-07-03T16:46:45.865Z,30.40
2018-07-03T16:49:15.054Z,30.40
2018-07-03T16:51:44.152Z,30.20
2018-07-03T16:54:16.280Z,30.20
2018-07-03T16:56:45.901Z,30.10
2018-07-03T16:59:15.326Z,29.90
2018-07-03T17:01:44.406Z,29.60
2018-07-03T17:04:13.930Z,29.60
2018-07-03T17:06:43.042Z,29.70
2018-07-03T17:09:12.800Z,29.80
2018-07-03T17:11:41.974Z,29.90
2018-07-03T17:14:11.548Z,29.80
2018-07-03T17:16:41.500Z,29.70
2018-07-03T17:19:15.993Z,29.60
2018-07-03T17:21:45.150Z,29.60
2018-07-03T17:24:14.272Z,29.70
2018-07-03T17:26:43.472Z,29.80
2018-07-03T17:29:12.583Z,29.70
2018-07-03T17:31:41.660Z,29.60
2018-07-03T17:34:11.268Z,29.50
2018-07-03T17:36:40.649Z,29.50
2018-07-03T17:39:17.368Z,29.40
2018-07-03T17:41:57.796Z,29.40
2018-07-03T17:45:51.962Z,29.40
2018-07-03T17:48:21.089Z,29.30
2018-07-03T17:50:50.155Z,29.30
2018-07-03T17:53:19.571Z,29.30
2018-07-03T17:55:48.727Z,29.30
2018-07-03T17:58:17.807Z,29.40
2018-07-03T18:00:47.705Z,29.40
2018-07-03T18:03:16.682Z,29.30
2018-07-03T18:05:45.781Z,29.40
2018-07-03T18:08:15.406Z,29.40
2018-07-03T18:10:44.585Z,29.40
2018-07-03T18:13:13.661Z,29.30
2018-07-03T18:15:42.725Z,29.30
2018-07-03T18:18:11.889Z,29.30
2018-07-03T18:20:41.001Z,29.30
2018-07-03T18:23:10.141Z,29.30
2018-07-03T18:25:39.607Z,29.20
2018-07-03T18:28:08.917Z,29.20
2018-07-03T18:30:39.191Z,29.20
2018-07-03T18:33:08.921Z,29.10
2018-07-03T18:35:38.324Z,29.10
2018-07-03T18:38:07.531Z,29.10
2018-07-03T18:40:36.626Z,29.00
2018-07-03T18:43:05.749Z,29.00
2018-07-03T18:45:36.742Z,29.00
2018-07-03T18:48:06.216Z,28.90
2018-07-03T18:50:35.978Z,28.90
2018-07-03T18:53:05.172Z,28.80
2018-07-03T18:55:34.320Z,28.70
2018-07-03T18:58:04.062Z,28.70
2018-07-03T19:00:33.284Z,28.60
2018-07-03T19:03:02.481Z,28.60
2018-07-03T19:05:31.662Z,28.60
2018-07-03T19:08:01.594Z,28.60
2018-07-03T19:10:30.863Z,28.50
2018-07-03T19:13:00.487Z,28.50
2018-07-03T19:15:30.538Z,28.50
2018-07-03T19:18:00.251Z,28.40
2018-07-03T19:20:29.425Z,28.40
2018-07-03T19:22:58.592Z,28.40
2018-07-03T19:25:30.102Z,28.20
2018-07-03T19:27:59.913Z,28.20
2018-07-03T19:30:29.361Z,28.00
2018-07-03T19:32:58.864Z,28.00
2018-07-03T19:35:28.673Z,28.00
2018-07-03T19:37:58.217Z,27.90
2018-07-03T19:40:27.374Z,27.80
2018-07-03T19:43:33.988Z,27.80
2018-07-03T19:46:03.903Z,27.70
2018-07-03T19:48:33.249Z,27.60
2018-07-03T19:51:02.511Z,27.40
2018-07-03T19:53:31.751Z,27.40
2018-07-03T19:56:02.283Z,27.30
2018-07-03T19:58:32.129Z,27.20
2018-07-03T20:01:01.416Z,27.10
2018-07-03T20:03:31.180Z,27.00
2018-07-03T20:06:00.324Z,27.00
2018-07-03T20:08:29.684Z,26.90
2018-07-03T20:10:58.931Z,26.80
2018-07-03T20:13:28.219Z,26.70
2018-07-03T20:15:57.399Z,26.80
2018-07-03T20:18:26.529Z,26.80
2018-07-03T20:20:55.755Z,26.80
2018-07-03T20:23:27.347Z,26.80
2018-07-03T20:25:59.264Z,26.70
2018-07-03T20:28:28.428Z,26.50
2018-07-03T20:30:58.073Z,26.40
2018-07-03T20:33:27.522Z,26.30
2018-07-03T20:35:56.683Z,26.10
2018-07-03T20:38:26.182Z,26.10
2018-07-03T20:40:58.455Z,26.00
2018-07-03T20:43:29.212Z,26.00
2018-07-03T20:45:58.956Z,25.90
2018-07-03T20:48:29.698Z,25.90
2018-07-03T20:50:59.417Z,25.90
2018-07-03T20:53:28.766Z,25.80
2018-07-03T20:55:58.247Z,25.80
2018-07-03T20:58:27.455Z,25.70
2018-07-03T21:00:56.766Z,25.80
2018-07-03T21:03:26.268Z,25.80
2018-07-03T21:05:55.698Z,25.80
2018-07-03T21:08:24.754Z,25.70
2018-07-03T21:10:56.309Z,25.70
2018-07-03T21:13:25.714Z,25.70
2018-07-03T21:15:54.853Z,25.60
2018-07-03T21:18:23.950Z,25.40
2018-07-03T21:20:53.066Z,25.20
2018-07-03T21:23:22.143Z,25.00
2018-07-03T21:25:51.546Z,25.00
2018-07-03T21:28:20.909Z,24.90
2018-07-03T21:30:50.254Z,24.90
2018-07-03T21:33:19.333Z,24.80
2018-07-03T21:35:48.735Z,24.80
2018-07-03T21:38:17.806Z,24.80
2018-07-03T21:40:47.407Z,24.80
2018-07-03T21:43:16.560Z,24.90
2018-07-03T21:45:45.790Z,25.00
2018-07-03T21:48:14.918Z,25.00
2018-07-03T21:50:44.072Z,24.90
2018-07-03T21:53:13.710Z,24.70
2018-07-03T21:55:43.310Z,24.50
2018-07-03T21:58:17.906Z,24.50
2018-07-03T22:00:47.589Z,24.50
2018-07-03T22:03:18.907Z,24.40
2018-07-03T22:05:48.311Z,24.30
2018-07-03T22:08:17.563Z,24.30
2018-07-03T22:10:46.625Z,24.30
2018-07-03T22:13:15.711Z,24.40
2018-07-03T22:15:45.165Z,24.40
2018-07-03T22:18:14.250Z,24.40
2018-07-03T22:20:43.537Z,24.40
2018-07-03T22:23:12.615Z,24.40
2018-07-03T22:25:41.874Z,24.30
2018-07-03T22:28:10.985Z,24.20
2018-07-03T22:30:40.090Z,24.20
2018-07-03T22:33:09.291Z,24.20
2018-07-03T22:35:38.433Z,24.10
2018-07-03T22:38:07.798Z,24.10
2018-07-03T22:40:41.276Z,24.10
2018-07-03T22:43:11.170Z,24.10
2018-07-03T22:45:40.624Z,24.00
2018-07-03T22:48:09.930Z,23.90
2018-07-03T22:50:39.021Z,23.80
2018-07-03T22:53:08.086Z,23.80
2018-07-03T22:55:37.191Z,23.70
2018-07-03T22:58:06.716Z,23.70
2018-07-03T23:00:35.799Z,23.70
2018-07-03T23:03:05.429Z,23.70
2018-07-03T23:05:34.474Z,23.60
2018-07-03T23:08:03.924Z,23.60
2018-07-03T23:10:33.296Z,23.40
2018-07-03T23:13:03.511Z,23.30
2018-07-03T23:15:33.550Z,23.30
2018-07-03T23:18:02.682Z,23.40
2018-07-03T23:20:32.337Z,23.50
2018-07-03T23:23:01.735Z,23.60
2018-07-03T23:25:30.810Z,23.50
2018-07-03T23:27:59.903Z,23.30
2018-07-03T23:30:29.235Z,23.20
2018-07-03T23:32:58.330Z,23.30
2018-07-03T23:35:27.396Z,23.30
2018-07-03T23:37:56.520Z,23.40
2018-07-03T23:40:25.570Z,23.40
2018-07-03T23:42:54.669Z,23.50
2018-07-03T23:45:27.903Z,23.40
2018-07-03T23:48:08.427Z,23.40
2018-07-03T23:50:48.883Z,23.40
2018-07-03T23:53:29.286Z,23.30
2018-07-03T23:56:09.922Z,23.30
2018-07-03T23:58:50.321Z,23.30
